Time;durP1;ratioP1;P1;durP2;ratioP2;P2;SDS_P1;SDS_P2;PMS_P1;PMS_P2;Temp;Humidity;BMP_temperature;BMP_pressure;BME280_temperature;BME280_humidity;BME280_pressure;Samples;Min_cycle;Max_cycle;Signal;HPM_P1;HPM_P2
2021/05/11 00:00:30;;;;;;;3.40;1.80;;;;;;;;;;5073443;28;20214;-55
2021/05/11 00:02:57;;;;;;;1.70;1.60;;;;;;;;;;5073434;28;20241;-57
2021/05/11 00:05:27;;;;;;;3.73;1.80;;;;;;;;;;5073459;28;20211;-50
2021/05/11 00:07:54;;;;;;;2.07;1.87;;;;;;;;;;5073209;28;20247;-55
2021/05/11 00:10:20;;;;;;;4.53;1.73;;;;;;;;;;5073366;28;20239;-53
2021/05/11 00:12:47;;;;;;;2.50;2.00;;;;;;;;;;5073174;28;20290;-52
2021/05/11 00:15:14;;;;;;;2.50;2.30;;;;;;;;;;5073132;28;20225;-53
2021/05/11 00:17:41;;;;;;;3.17;2.17;;;;;;;;;;5073366;28;20237;-54
2021/05/11 00:20:08;;;;;;;2.87;2.27;;;;;;;;;;5073018;28;20730;-51
2021/05/11 00:22:35;;;;;;;2.83;2.40;;;;;;;;;;5072885;28;20687;-55
2021/05/11 00:25:02;;;;;;;2.30;2.10;;;;;;;;;;5073167;28;20209;-55
2021/05/11 00:27:28;;;;;;;2.60;2.40;;;;;;;;;;5072754;28;20679;-56
2021/05/11 00:29:55;;;;;;;2.70;2.50;;;;;;;;;;5072667;28;20226;-57
2021/05/11 00:32:21;;;;;;;3.73;2.53;;;;;;;;;;5072679;28;20213;-54
2021/05/11 00:34:48;;;;;;;3.73;3.13;;;;;;;;;;5072549;28;20278;-56
2021/05/11 00:37:14;;;;;;;3.50;3.07;;;;;;;;;;5072837;28;20217;-54
2021/05/11 00:39:42;;;;;;;6.93;3.27;;;;;;;;;;5072598;28;20213;-56
2021/05/11 00:42:08;;;;;;;6.53;3.40;;;;;;;;;;5072687;28;20209;-55
2021/05/11 00:44:35;;;;;;;5.70;3.57;;;;;;;;;;5072450;28;20232;-54
2021/05/11 00:47:04;;;;;;;4.40;4.00;;;;;;;;;;5072491;28;20204;-57
2021/05/11 00:49:31;;;;;;;6.70;4.20;;;;;;;;;;5072183;28;20233;-54
2021/05/11 00:51:59;;;;;;;4.63;4.00;;;;;;;;;;5072418;28;20212;-55
2021/05/11 00:54:25;;;;;;;5.70;4.57;;;;;;;;;;5072475;28;20226;-56
2021/05/11 00:56:53;;;;;;;5.50;4.37;;;;;;;;;;5072309;28;20613;-52
2021/05/11 00:59:22;;;;;;;5.43;4.93;;;;;;;;;;5072359;28;20829;-53
2021/05/11 01:01:49;;;;;;;5.03;4.20;;;;;;;;;;5071995;28;20228;-52
2021/05/11 01:04:16;;;;;;;8.67;5.33;;;;;;;;;;5072396;28;20225;-52
2021/05/11 01:06:42;;;;;;;8.03;5.10;;;;;;;;;;5072260;28;20206;-54
2021/05/11 01:09:09;;;;;;;7.07;5.23;;;;;;;;;;5071806;28;20258;-51
2021/05/11 01:11:37;;;;;;;6.53;5.10;;;;;;;;;;5071951;28;20266;-57
2021/05/11 01:14:05;;;;;;;7.73;5.67;;;;;;;;;;5072044;28;20229;-57
2021/05/11 01:16:32;;;;;;;6.60;5.90;;;;;;;;;;5071933;28;20205;-55
2021/05/11 01:19:02;;;;;;;7.60;5.93;;;;;;;;;;5072164;28;20299;-49
2021/05/11 01:21:37;;;;;;;7.00;6.20;;;;;;;;;;5072151;28;20213;-57
2021/05/11 01:24:08;;;;;;;7.20;6.50;;;;;;;;;;5071883;28;20319;-57
2021/05/11 01:26:43;;;;;;;8.47;6.43;;;;;;;;;;5072085;28;20612;-55
2021/05/11 01:29:20;;;;;;;7.17;6.13;;;;;;;;;;5071801;28;20200;-54
2021/05/11 01:32:20;;;;;;;8.80;6.50;;;;;;;;;;5072025;28;20259;-55
2021/05/11 01:48:39;;;;;;;7.10;6.27;;;;;;;;;;5071928;28;20337;-56
2021/05/11 01:51:24;;;;;;;9.13;7.40;;;;;;;;;;5071546;28;20200;-53
2021/05/11 01:54:09;;;;;;;8.00;7.20;;;;;;;;;;5071771;28;20267;-58
2021/05/11 01:56:58;;;;;;;11.63;7.57;;;;;;;;;;5071792;28;20304;-50
2021/05/11 02:11:07;;;;;;;10.87;8.63;;;;;;;;;;5071456;28;20621;-51
2021/05/11 02:24:33;;;;;;;12.30;10.17;;;;;;;;;;5075221;28;20323;-52
2021/05/11 02:26:59;;;;;;;11.43;9.50;;;;;;;;;;5075612;28;20250;-53
2021/05/11 02:29:27;;;;;;;10.37;9.13;;;;;;;;;;5074856;28;20201;-53
2021/05/11 02:31:53;;;;;;;15.67;10.43;;;;;;;;;;5075192;28;20266;-56
2021/05/11 02:34:20;;;;;;;13.80;10.67;;;;;;;;;;5075145;28;20232;-56
2021/05/11 02:36:46;;;;;;;12.30;10.00;;;;;;;;;;5074942;28;20219;-54
2021/05/11 02:39:13;;;;;;;13.47;10.50;;;;;;;;;;5074841;28;20603;-54
2021/05/11 02:41:41;;;;;;;13.10;10.60;;;;;;;;;;5074664;28;20208;-55
2021/05/11 02:44:08;;;;;;;9.87;8.90;;;;;;;;;;5074598;28;20221;-52
2021/05/11 02:46:36;;;;;;;10.87;9.50;;;;;;;;;;5074978;28;20303;-57
2021/05/11 02:49:02;;;;;;;11.93;9.37;;;;;;;;;;5074906;28;20198;-56
2021/05/11 02:51:29;;;;;;;10.43;9.27;;;;;;;;;;5074577;28;20295;-53
2021/05/11 02:53:56;;;;;;;10.40;8.73;;;;;;;;;;5074682;28;20228;-56
2021/05/11 02:56:22;;;;;;;9.83;8.83;;;;;;;;;;5074585;28;20205;-55
2021/05/11 02:58:50;;;;;;;12.27;9.70;;;;;;;;;;5074597;28;20645;-50
2021/05/11 03:01:17;;;;;;;14.13;10.67;;;;;;;;;;5074612;28;20208;-53
2021/05/11 03:03:44;;;;;;;10.70;9.53;;;;;;;;;;5074479;28;20225;-52
2021/05/11 03:06:11;;;;;;;11.53;10.33;;;;;;;;;;5074548;28;20212;-57
2021/05/11 03:08:41;;;;;;;13.17;10.70;;;;;;;;;;5074354;28;20204;-50
2021/05/11 03:11:07;;;;;;;12.03;10.47;;;;;;;;;;5074116;28;20204;-54
2021/05/11 03:13:34;;;;;;;11.20;9.37;;;;;;;;;;5074168;28;20252;-55
2021/05/11 03:16:00;;;;;;;11.13;9.40;;;;;;;;;;5074246;28;20270;-56
2021/05/11 03:18:27;;;;;;;14.73;11.10;;;;;;;;;;5074222;28;20673;-53
2021/05/11 03:20:55;;;;;;;13.40;9.77;;;;;;;;;;5074111;28;20751;-55
2021/05/11 03:23:21;;;;;;;10.87;9.30;;;;;;;;;;5074480;28;20644;-49
2021/05/11 03:25:48;;;;;;;13.17;9.30;;;;;;;;;;5073973;28;20213;-52
2021/05/11 03:28:14;;;;;;;11.97;9.03;;;;;;;;;;5074284;28;20201;-56
2021/05/11 03:30:42;;;;;;;12.30;9.67;;;;;;;;;;5073926;28;20201;-54
2021/05/11 03:33:09;;;;;;;12.53;10.13;;;;;;;;;;5074766;28;20307;-57
2021/05/11 03:35:35;;;;;;;12.53;9.80;;;;;;;;;;5074256;28;20207;-57
2021/05/11 03:38:04;;;;;;;14.63;10.70;;;;;;;;;;5074507;28;20205;-53
2021/05/11 03:40:31;;;;;;;15.20;10.97;;;;;;;;;;5073582;28;20225;-51
2021/05/11 03:43:03;;;;;;;14.40;11.27;;;;;;;;;;5073557;28;20720;-57
2021/05/11 03:45:32;;;;;;;14.77;10.73;;;;;;;;;;5074051;28;20228;-50
2021/05/11 03:47:59;;;;;;;13.30;11.10;;;;;;;;;;5073634;28;20580;-53
2021/05/11 03:50:25;;;;;;;15.20;10.57;;;;;;;;;;5073603;28;20258;-56
2021/05/11 03:52:52;;;;;;;13.27;10.00;;;;;;;;;;5073293;28;20236;-57
2021/05/11 03:55:19;;;;;;;13.57;10.17;;;;;;;;;;5073733;28;20232;-55
2021/05/11 03:57:46;;;;;;;11.70;9.80;;;;;;;;;;5073576;28;20215;-54
2021/05/11 04:00:13;;;;;;;13.53;9.77;;;;;;;;;;5073279;28;20632;-57
2021/05/11 04:02:39;;;;;;;11.47;9.80;;;;;;;;;;5073591;28;20205;-57
2021/05/11 04:05:09;;;;;;;12.60;9.47;;;;;;;;;;5073263;28;20208;-58
2021/05/11 04:07:36;;;;;;;12.67;9.87;;;;;;;;;;5073281;28;20223;-56
2021/05/11 04:10:05;;;;;;;13.17;10.57;;;;;;;;;;5073275;28;20212;-55
2021/05/11 04:12:45;;;;;;;15.10;12.33;;;;;;;;;;5073701;28;20201;-55
2021/05/11 04:17:57;;;;;;;15.93;12.73;;;;;;;;;;5052616;28;20207;-53
2021/05/11 04:20:23;;;;;;;19.63;14.53;;;;;;;;;;5053179;28;20287;-56
2021/05/11 04:22:50;;;;;;;19.80;15.17;;;;;;;;;;5053403;28;20819;-51
2021/05/11 04:25:16;;;;;;;19.13;13.97;;;;;;;;;;5053022;28;20205;-56
2021/05/11 04:27:44;;;;;;;19.17;15.13;;;;;;;;;;5053090;28;20209;-50
2021/05/11 04:30:11;;;;;;;19.30;14.57;;;;;;;;;;5052422;28;20202;-56
2021/05/11 04:32:38;;;;;;;18.90;14.20;;;;;;;;;;5052357;28;20202;-59
2021/05/11 04:35:05;;;;;;;19.60;14.47;;;;;;;;;;5055835;28;20213;-50
2021/05/11 04:37:31;;;;;;;18.50;14.00;;;;;;;;;;5052822;28;20588;-56
2021/05/11 04:39:58;;;;;;;20.50;14.57;;;;;;;;;;5052449;28;20275;-52
2021/05/11 04:42:24;;;;;;;20.90;14.43;;;;;;;;;;5052038;28;20198;-52
2021/05/11 04:44:53;;;;;;;21.17;13.83;;;;;;;;;;5052047;28;20225;-55
2021/05/11 04:47:21;;;;;;;21.80;15.37;;;;;;;;;;5052634;28;20213;-52
2021/05/11 04:49:48;;;;;;;19.60;14.23;;;;;;;;;;5057438;28;20209;-55
2021/05/11 04:52:14;;;;;;;19.27;14.03;;;;;;;;;;5072257;28;20227;-55
2021/05/11 04:54:41;;;;;;;20.20;14.87;;;;;;;;;;5071949;28;20229;-57
2021/05/11 04:57:08;;;;;;;21.03;16.20;;;;;;;;;;5072305;28;20204;-54
2021/05/11 04:59:34;;;;;;;24.60;15.73;;;;;;;;;;5071711;28;20271;-54
2021/05/11 05:02:03;;;;;;;23.80;16.47;;;;;;;;;;5072301;28;20216;-52
2021/05/11 05:04:32;;;;;;;25.47;16.77;;;;;;;;;;5071909;28;20234;-56
2021/05/11 05:06:59;;;;;;;20.97;15.33;;;;;;;;;;5072152;28;20228;-55
2021/05/11 05:09:25;;;;;;;20.50;14.77;;;;;;;;;;5072165;28;20601;-56
2021/05/11 05:11:52;;;;;;;20.40;14.87;;;;;;;;;;5071691;28;20212;-52
2021/05/11 05:14:18;;;;;;;17.90;14.07;;;;;;;;;;5071924;28;20236;-52
2021/05/11 05:16:45;;;;;;;22.43;14.93;;;;;;;;;;5072046;28;20213;-56
2021/05/11 05:19:12;;;;;;;18.07;13.97;;;;;;;;;;5072081;28;20599;-56
2021/05/11 05:21:39;;;;;;;16.63;14.30;;;;;;;;;;5071645;28;20216;-56
2021/05/11 05:24:10;;;;;;;22.63;14.30;;;;;;;;;;5071943;28;20279;-55
2021/05/11 05:26:37;;;;;;;18.70;14.53;;;;;;;;;;5061349;28;20201;-56
2021/05/11 05:29:04;;;;;;;20.10;14.87;;;;;;;;;;5071136;28;20201;-56
2021/05/11 05:31:31;;;;;;;19.13;14.33;;;;;;;;;;5071448;28;20212;-58
2021/05/11 05:33:57;;;;;;;20.57;14.80;;;;;;;;;;5069617;28;20217;-59
2021/05/11 05:36:25;;;;;;;19.60;13.77;;;;;;;;;;5071420;28;20204;-59
2021/05/11 05:38:52;;;;;;;17.90;13.93;;;;;;;;;;5070831;28;20212;-57
2021/05/11 05:41:21;;;;;;;16.83;13.07;;;;;;;;;;5071672;28;20215;-57
2021/05/11 05:43:48;;;;;;;18.73;13.10;;;;;;;;;;5071530;28;20229;-58
2021/05/11 05:46:15;;;;;;;17.37;13.17;;;;;;;;;;5071607;28;20201;-56
2021/05/11 05:48:42;;;;;;;17.17;13.70;;;;;;;;;;5071202;28;20212;-58
2021/05/11 05:51:09;;;;;;;18.93;12.27;;;;;;;;;;5071049;28;20258;-63
2021/05/11 05:53:36;;;;;;;16.50;12.47;;;;;;;;;;5071065;28;20221;-62
2021/05/11 05:56:03;;;;;;;14.60;11.70;;;;;;;;;;5075250;28;20208;-63
2021/05/11 05:58:30;;;;;;;14.80;11.50;;;;;;;;;;5075394;28;20684;-63
2021/05/11 06:00:59;;;;;;;17.57;12.20;;;;;;;;;;5074951;28;20236;-66
2021/05/11 06:03:37;;;;;;;15.63;11.67;;;;;;;;;;5066488;28;20229;-64
2021/05/11 06:06:04;;;;;;;18.63;13.90;;;;;;;;;;5055084;28;20263;-65
2021/05/11 06:08:31;;;;;;;17.77;13.10;;;;;;;;;;5055023;28;20212;-63
2021/05/11 06:11:02;;;;;;;17.20;13.63;;;;;;;;;;5055245;28;20325;-65
2021/05/11 06:13:34;;;;;;;15.07;11.43;;;;;;;;;;5055060;28;20251;-64
2021/05/11 06:18:45;;;;;;;20.63;12.47;;;;;;;;;;5054383;28;20274;-65
2021/05/11 06:21:12;;;;;;;17.03;10.30;;;;;;;;;;5054910;28;20207;-65
2021/05/11 06:23:38;;;;;;;12.90;9.70;;;;;;;;;;5054923;28;20616;-66
2021/05/11 06:26:07;;;;;;;11.73;10.03;;;;;;;;;;5054975;28;20214;-66
2021/05/11 06:28:37;;;;;;;12.43;10.37;;;;;;;;;;5054588;28;20713;-64
2021/05/11 06:31:04;;;;;;;11.57;9.23;;;;;;;;;;5054469;28;20613;-67
2021/05/11 06:33:31;;;;;;;13.10;10.03;;;;;;;;;;5055076;28;20232;-65
2021/05/11 06:35:57;;;;;;;13.43;11.13;;;;;;;;;;5054820;28;20286;-66
2021/05/11 06:38:24;;;;;;;13.97;11.20;;;;;;;;;;5054601;28;20621;-64
2021/05/11 06:40:50;;;;;;;14.20;11.37;;;;;;;;;;5054511;28;20236;-64
2021/05/11 06:43:24;;;;;;;12.97;10.10;;;;;;;;;;5054343;28;20287;-65
2021/05/11 06:48:41;;;;;;;14.93;11.10;;;;;;;;;;5054032;28;20803;-63
2021/05/11 06:53:53;;;;;;;17.73;12.30;;;;;;;;;;5054169;28;20264;-64
2021/05/11 06:56:21;;;;;;;16.20;12.37;;;;;;;;;;5054184;28;20220;-64
2021/05/11 06:58:48;;;;;;;15.57;10.97;;;;;;;;;;5053942;28;20649;-64
2021/05/11 07:01:19;;;;;;;14.77;12.20;;;;;;;;;;5054290;28;20208;-65
2021/05/11 07:03:45;;;;;;;15.87;12.90;;;;;;;;;;5074664;28;20229;-64
2021/05/11 07:06:13;;;;;;;16.00;12.20;;;;;;;;;;5073678;28;20208;-65
2021/05/11 07:08:42;;;;;;;16.83;12.90;;;;;;;;;;5073912;28;20265;-61
2021/05/11 07:11:23;;;;;;;16.67;12.77;;;;;;;;;;5074022;28;20212;-65
2021/05/11 07:13:50;;;;;;;13.17;11.20;;;;;;;;;;5074005;28;20802;-63
2021/05/11 07:16:17;;;;;;;14.63;12.57;;;;;;;;;;5074129;28;20575;-64
2021/05/11 07:18:43;;;;;;;17.30;12.70;;;;;;;;;;5073794;28;20208;-64
2021/05/11 07:21:10;;;;;;;14.67;10.63;;;;;;;;;;5073448;28;20215;-65
2021/05/11 07:23:36;;;;;;;15.63;11.63;;;;;;;;;;5073823;28;20720;-64
2021/05/11 07:26:09;;;;;;;17.93;11.43;;;;;;;;;;5073903;28;20216;-65
2021/05/11 07:28:43;;;;;;;14.83;8.97;;;;;;;;;;5073550;28;20298;-64
2021/05/11 07:31:12;;;;;;;11.60;8.40;;;;;;;;;;5073614;28;20212;-63
2021/05/11 07:33:40;;;;;;;15.33;9.37;;;;;;;;;;5073248;28;20235;-64
2021/05/11 07:36:07;;;;;;;12.67;9.33;;;;;;;;;;5074029;28;20219;-64
2021/05/11 07:38:34;;;;;;;14.93;9.73;;;;;;;;;;5073404;28;20228;-64
2021/05/11 07:41:00;;;;;;;15.27;11.43;;;;;;;;;;5074049;28;20357;-64
2021/05/11 07:43:29;;;;;;;14.63;11.13;;;;;;;;;;5073360;28;20221;-62
2021/05/11 07:52:07;;;;;;;14.33;10.00;;;;;;;;;;5073222;28;20285;-64
2021/05/11 08:03:19;;;;;;;12.37;9.50;;;;;;;;;;5048092;22;20207;-66
2021/05/11 08:06:14;;;;;;;12.97;10.67;;;;;;;;;;5072552;28;20221;-64
2021/05/11 08:16:57;;;;;;;12.40;10.90;;;;;;;;;;5074989;28;20231;-64
2021/05/11 08:19:43;;;;;;;12.97;8.60;;;;;;;;;;5072339;28;20256;-64
2021/05/11 08:27:43;;;;;;;13.13;9.53;;;;;;;;;;5077394;28;20195;-64
2021/05/11 08:30:10;;;;;;;12.63;9.57;;;;;;;;;;5072515;28;20564;-61
2021/05/11 08:32:37;;;;;;;9.33;8.33;;;;;;;;;;5072489;28;20223;-63
2021/05/11 08:35:04;;;;;;;14.00;10.27;;;;;;;;;;5072477;28;20205;-65
2021/05/11 08:37:31;;;;;;;11.73;8.40;;;;;;;;;;5072162;28;20209;-62
2021/05/11 08:39:57;;;;;;;10.43;9.17;;;;;;;;;;5072203;28;20242;-63
2021/05/11 08:42:24;;;;;;;11.00;8.50;;;;;;;;;;5071792;28;20208;-64
2021/05/11 08:44:51;;;;;;;10.63;6.20;;;;;;;;;;5072313;28;20235;-64
2021/05/11 08:47:19;;;;;;;7.73;6.10;;;;;;;;;;5071919;28;20200;-64
2021/05/11 08:49:46;;;;;;;5.70;4.23;;;;;;;;;;5072135;28;20201;-66
2021/05/11 08:52:19;;;;;;;7.33;4.20;;;;;;;;;;5072185;28;20212;-65
2021/05/11 08:55:03;;;;;;;6.27;5.00;;;;;;;;;;5071989;28;20217;-66
2021/05/11 09:08:56;;;;;;;6.97;4.90;;;;;;;;;;5071992;28;20285;-64
2021/05/11 09:14:37;;;;;;;8.67;6.53;;;;;;;;;;5071870;28;20239;-64
2021/05/11 09:25:34;;;;;;;8.00;6.50;;;;;;;;;;5072020;28;20242;-58
2021/05/11 09:28:21;;;;;;;9.10;8.00;;;;;;;;;;5071268;28;20293;-57
2021/05/11 09:30:54;;;;;;;8.70;6.97;;;;;;;;;;5071506;28;20201;-58
2021/05/11 09:33:28;;;;;;;10.37;7.30;;;;;;;;;;5072022;28;20266;-58
2021/05/11 10:36:55;;;;;;;7.93;4.60;;;;;;;;;;5071165;28;20288;-59
2021/05/11 10:42:24;;;;;;;10.40;6.33;;;;;;;;;;5073482;28;20330;-53
2021/05/11 10:48:00;;;;;;;10.50;7.20;;;;;;;;;;5040462;28;20626;-55
2021/05/11 10:50:43;;;;;;;10.40;6.87;;;;;;;;;;5074535;28;20219;-54
2021/05/11 10:53:14;;;;;;;7.67;6.50;;;;;;;;;;5073946;28;20315;-53
2021/05/11 10:55:42;;;;;;;7.83;6.90;;;;;;;;;;5074303;28;20209;-55
2021/05/11 10:58:09;;;;;;;10.23;7.73;;;;;;;;;;5074265;28;20284;-52
2021/05/11 11:00:42;;;;;;;10.40;7.50;;;;;;;;;;5074041;28;20228;-53
2021/05/11 11:03:12;;;;;;;12.43;7.80;;;;;;;;;;5074295;28;20232;-54
2021/05/11 11:05:40;;;;;;;10.50;8.57;;;;;;;;;;5074374;28;20212;-65
2021/05/11 11:08:34;;;;;;;10.37;8.97;;;;;;;;;;5073779;28;20231;-61
2021/05/11 11:11:09;;;;;;;12.87;8.27;;;;;;;;;;5038191;28;20211;-63
2021/05/11 11:13:36;;;;;;;7.53;6.63;;;;;;;;;;5074238;28;20599;-62
2021/05/11 11:16:03;;;;;;;11.00;6.87;;;;;;;;;;5074266;28;20262;-60
2021/05/11 11:18:30;;;;;;;7.73;5.80;;;;;;;;;;5073949;28;20208;-60
2021/05/11 11:21:18;;;;;;;8.37;5.13;;;;;;;;;;5073719;28;20244;-66
2021/05/11 11:23:44;;;;;;;5.53;3.60;;;;;;;;;;5074173;28;20228;-59
2021/05/11 11:26:13;;;;;;;6.73;3.63;;;;;;;;;;5074045;28;20201;-57
2021/05/11 11:28:40;;;;;;;3.33;3.03;;;;;;;;;;5073279;28;20691;-58
2021/05/11 11:31:22;;;;;;;4.60;3.20;;;;;;;;;;5072884;28;20205;-60
2021/05/11 11:33:49;;;;;;;5.40;3.30;;;;;;;;;;5073599;28;20286;-60
2021/05/11 11:36:28;;;;;;;5.87;3.40;;;;;;;;;;5073714;28;20673;-61
2021/05/11 11:38:56;;;;;;;6.43;3.53;;;;;;;;;;5073553;28;20228;-57
2021/05/11 11:41:25;;;;;;;5.77;4.50;;;;;;;;;;5073410;28;20701;-53
2021/05/11 11:43:51;;;;;;;6.47;4.50;;;;;;;;;;5073051;28;20272;-61
2021/05/11 11:46:25;;;;;;;6.90;6.20;;;;;;;;;;5073805;28;20209;-60
2021/05/11 11:48:59;;;;;;;11.30;8.20;;;;;;;;;;5073323;28;20216;-59
2021/05/11 11:51:26;;;;;;;12.30;9.10;;;;;;;;;;5073022;28;20211;-54
2021/05/11 11:54:03;;;;;;;14.27;10.57;;;;;;;;;;5073121;28;20225;-58
2021/05/11 11:59:19;;;;;;;12.47;10.80;;;;;;;;;;5072925;28;20207;-59
2021/05/11 12:01:55;;;;;;;15.77;11.53;;;;;;;;;;5072961;28;20679;-56
2021/05/11 12:04:22;;;;;;;13.53;11.50;;;;;;;;;;5072839;28;20236;-59
2021/05/11 12:06:50;;;;;;;13.70;11.27;;;;;;;;;;5072937;28;20213;-61
2021/05/11 12:09:17;;;;;;;15.30;11.43;;;;;;;;;;5073396;28;20646;-59
2021/05/11 12:11:44;;;;;;;17.93;11.43;;;;;;;;;;5072939;28;20268;-60
2021/05/11 12:14:10;;;;;;;12.77;10.70;;;;;;;;;;5072900;28;20752;-57
2021/05/11 12:16:41;;;;;;;13.43;10.20;;;;;;;;;;5072799;28;20676;-56
2021/05/11 12:19:11;;;;;;;11.70;9.90;;;;;;;;;;5072339;28;20215;-58
2021/05/11 12:21:49;;;;;;;13.50;9.87;;;;;;;;;;5073818;28;20242;-52
2021/05/11 12:24:16;;;;;;;16.07;9.37;;;;;;;;;;5074547;28;20225;-58
2021/05/11 12:26:43;;;;;;;11.90;8.83;;;;;;;;;;5074058;28;20231;-57
2021/05/11 12:29:11;;;;;;;10.13;8.93;;;;;;;;;;5074311;28;20208;-59
2021/05/11 12:31:38;;;;;;;13.27;8.60;;;;;;;;;;5073247;28;20204;-55
2021/05/11 12:34:06;;;;;;;11.43;9.00;;;;;;;;;;5074916;28;20255;-62
2021/05/11 12:36:39;;;;;;;9.33;8.37;;;;;;;;;;5074498;28;20205;-61
2021/05/11 12:39:20;;;;;;;11.10;8.67;;;;;;;;;;5074112;28;20216;-59
2021/05/11 12:41:46;;;;;;;11.33;8.97;;;;;;;;;;5072209;28;20215;-62
2021/05/11 12:44:26;;;;;;;10.80;8.63;;;;;;;;;;5072212;28;20293;-59
2021/05/11 12:46:58;;;;;;;12.83;8.63;;;;;;;;;;5072104;28;20213;-58
2021/05/11 12:49:24;;;;;;;10.63;8.97;;;;;;;;;;5072521;28;20216;-55
2021/05/11 12:51:53;;;;;;;12.60;9.43;;;;;;;;;;5071981;28;20238;-63
2021/05/11 12:54:27;;;;;;;10.37;9.23;;;;;;;;;;5072064;28;20228;-58
2021/05/11 12:57:05;;;;;;;11.80;9.87;;;;;;;;;;5072185;28;20212;-64
2021/05/11 12:59:36;;;;;;;12.37;9.10;;;;;;;;;;5071964;28;20212;-56
2021/05/11 13:02:08;;;;;;;11.80;9.13;;;;;;;;;;5071942;28;20585;-55
2021/05/11 13:21:33;;;;;;;10.27;8.90;;;;;;;;;;5071401;28;20261;-60
2021/05/11 13:26:48;;;;;;;15.80;10.50;;;;;;;;;;5071466;28;20211;-59
2021/05/11 13:29:25;;;;;;;12.20;10.77;;;;;;;;;;5071248;28;20287;-60
2021/05/11 13:31:54;;;;;;;15.27;11.93;;;;;;;;;;5071366;28;20216;-60
2021/05/11 13:34:22;;;;;;;14.63;11.00;;;;;;;;;;5071577;28;20225;-61
2021/05/11 13:36:48;;;;;;;14.87;11.67;;;;;;;;;;5071342;28;20703;-59
2021/05/11 13:39:16;;;;;;;11.47;10.27;;;;;;;;;;5071314;28;20216;-60
2021/05/11 13:41:43;;;;;;;13.30;11.23;;;;;;;;;;5071080;28;20319;-61
2021/05/11 13:44:10;;;;;;;14.33;12.00;;;;;;;;;;5070898;28;20227;-66
2021/05/11 13:46:36;;;;;;;12.83;10.97;;;;;;;;;;5071358;28;20208;-66
2021/05/11 13:49:04;;;;;;;12.90;10.83;;;;;;;;;;5071747;28;20212;-66
2021/05/11 13:51:30;;;;;;;17.23;11.57;;;;;;;;;;5071212;28;20911;-65
2021/05/11 13:53:59;;;;;;;12.13;10.33;;;;;;;;;;5071362;28;20228;-65
2021/05/11 13:56:44;;;;;;;10.97;9.30;;;;;;;;;;5071469;28;20209;-65
2021/05/11 14:02:19;;;;;;;10.13;8.80;;;;;;;;;;5071644;28;20846;-66
2021/05/11 14:04:46;;;;;;;11.73;9.33;;;;;;;;;;5071412;28;20248;-65
2021/05/11 14:07:12;;;;;;;9.10;8.13;;;;;;;;;;5071199;28;20670;-65
2021/05/11 14:09:39;;;;;;;9.60;8.17;;;;;;;;;;5071200;28;20211;-65
2021/05/11 14:12:07;;;;;;;8.40;7.60;;;;;;;;;;5072058;28;20253;-65
2021/05/11 14:14:33;;;;;;;9.67;7.80;;;;;;;;;;5071353;28;20228;-65
2021/05/11 14:17:00;;;;;;;8.20;7.40;;;;;;;;;;5075380;28;20575;-65
2021/05/11 14:19:28;;;;;;;8.13;7.33;;;;;;;;;;5075589;28;20712;-64
2021/05/11 14:21:54;;;;;;;8.57;7.67;;;;;;;;;;5075153;28;20208;-64
2021/05/11 14:24:21;;;;;;;7.97;7.17;;;;;;;;;;5075181;28;20225;-66
2021/05/11 14:26:47;;;;;;;9.53;7.17;;;;;;;;;;5074989;28;20216;-66
2021/05/11 14:29:15;;;;;;;8.43;7.30;;;;;;;;;;5075284;28;20555;-66
2021/05/11 14:31:41;;;;;;;6.77;6.07;;;;;;;;;;5075006;28;20696;-66
2021/05/11 14:34:09;;;;;;;6.97;5.50;;;;;;;;;;5074972;28;20231;-66
2021/05/11 14:36:36;;;;;;;7.13;5.70;;;;;;;;;;5074655;28;20205;-65
2021/05/11 14:39:02;;;;;;;6.93;6.23;;;;;;;;;;5074801;28;20209;-67
2021/05/11 14:41:29;;;;;;;7.27;6.37;;;;;;;;;;5074957;28;20231;-67
2021/05/11 14:43:56;;;;;;;8.13;6.83;;;;;;;;;;5075010;28;20235;-65
2021/05/11 14:46:24;;;;;;;8.90;7.20;;;;;;;;;;5075049;28;20219;-66
2021/05/11 14:48:51;;;;;;;8.77;7.87;;;;;;;;;;5074525;28;20218;-65
2021/05/11 14:51:17;;;;;;;7.67;6.60;;;;;;;;;;5074675;28;20204;-64
2021/05/11 14:53:46;;;;;;;8.90;8.00;;;;;;;;;;5074525;28;20275;-63
2021/05/11 14:56:12;;;;;;;8.20;6.73;;;;;;;;;;5074517;28;20558;-64
2021/05/11 14:58:39;;;;;;;8.43;7.53;;;;;;;;;;5074232;28;20670;-64
2021/05/11 15:01:06;;;;;;;7.33;6.40;;;;;;;;;;5074312;28;20278;-64
2021/05/11 15:03:33;;;;;;;8.07;6.70;;;;;;;;;;5074189;28;20233;-64
2021/05/11 15:06:00;;;;;;;7.80;6.47;;;;;;;;;;5074256;28;20209;-64
2021/05/11 15:08:27;;;;;;;8.93;8.03;;;;;;;;;;5078474;28;20216;-64
2021/05/11 15:10:53;;;;;;;7.17;6.47;;;;;;;;;;5094275;28;20204;-65
2021/05/11 15:13:20;;;;;;;7.70;6.80;;;;;;;;;;5094205;28;20704;-66
2021/05/11 15:15:50;;;;;;;8.10;6.93;;;;;;;;;;5094372;28;20258;-65
2021/05/11 15:18:17;;;;;;;8.83;6.83;;;;;;;;;;5093831;28;20212;-65
2021/05/11 15:20:44;;;;;;;8.17;7.37;;;;;;;;;;5094000;28;20647;-66
2021/05/11 15:23:10;;;;;;;6.53;5.83;;;;;;;;;;5093823;28;20220;-68
2021/05/11 15:25:37;;;;;;;7.93;6.63;;;;;;;;;;5094234;28;20215;-66
2021/05/11 15:28:04;;;;;;;8.47;7.57;;;;;;;;;;5093087;28;20261;-69
2021/05/11 15:30:31;;;;;;;7.73;6.90;;;;;;;;;;5093805;28;20669;-66
2021/05/11 15:32:58;;;;;;;8.10;7.30;;;;;;;;;;5093854;28;20247;-65
2021/05/11 15:35:25;;;;;;;8.27;7.17;;;;;;;;;;5093428;28;20291;-66
2021/05/11 15:37:55;;;;;;;11.80;8.23;;;;;;;;;;5093383;28;20692;-65
2021/05/11 15:40:22;;;;;;;7.90;6.97;;;;;;;;;;5093479;28;20216;-65
2021/05/11 15:42:49;;;;;;;8.47;7.67;;;;;;;;;;5093830;28;20211;-69
2021/05/11 15:45:16;;;;;;;11.43;8.73;;;;;;;;;;5094224;28;20208;-64
2021/05/11 15:47:52;;;;;;;12.43;11.13;;;;;;;;;;5094255;28;20211;-61
2021/05/11 15:50:20;;;;;;;13.67;11.90;;;;;;;;;;5093983;28;20552;-60
2021/05/11 15:52:46;;;;;;;14.40;11.93;;;;;;;;;;5093370;28;20211;-58
2021/05/11 15:55:14;;;;;;;15.20;13.50;;;;;;;;;;5094163;28;20208;-56
2021/05/11 15:57:41;;;;;;;14.47;12.97;;;;;;;;;;5092927;28;20231;-55
2021/05/11 16:00:08;;;;;;;18.07;15.20;;;;;;;;;;5092941;28;20231;-54
2021/05/11 16:02:34;;;;;;;18.13;14.97;;;;;;;;;;5093269;28;20208;-56
2021/05/11 16:05:01;;;;;;;19.03;16.30;;;;;;;;;;5093419;28;20210;-58
2021/05/11 16:07:28;;;;;;;19.53;17.07;;;;;;;;;;5092848;28;20682;-58
2021/05/11 16:09:54;;;;;;;22.17;18.10;;;;;;;;;;5092976;28;20214;-60
2021/05/11 16:12:22;;;;;;;23.27;19.33;;;;;;;;;;5093081;28;20237;-60
2021/05/11 16:14:49;;;;;;;22.17;18.87;;;;;;;;;;5093180;28;20231;-60
2021/05/11 16:17:16;;;;;;;21.50;17.13;;;;;;;;;;5092900;28;20301;-55
2021/05/11 16:19:42;;;;;;;22.90;18.47;;;;;;;;;;5093100;28;20226;-62
2021/05/11 16:22:09;;;;;;;22.57;18.67;;;;;;;;;;5093457;28;20200;-59
2021/05/11 16:24:35;;;;;;;24.63;19.50;;;;;;;;;;5092439;28;20227;-58
2021/05/11 16:27:02;;;;;;;26.27;20.03;;;;;;;;;;5092296;28;20236;-64
2021/05/11 16:29:29;;;;;;;26.50;20.10;;;;;;;;;;5092316;28;20209;-60
2021/05/11 16:31:58;;;;;;;24.60;18.83;;;;;;;;;;5092966;28;20205;-55
2021/05/11 16:34:24;;;;;;;20.27;17.60;;;;;;;;;;5095125;28;20261;-57
2021/05/11 16:36:51;;;;;;;21.90;18.47;;;;;;;;;;5096086;28;20207;-58
2021/05/11 16:39:18;;;;;;;22.83;18.73;;;;;;;;;;5092574;28;20670;-52
2021/05/11 16:41:46;;;;;;;22.00;19.03;;;;;;;;;;5094134;28;20242;-56
2021/05/11 16:44:12;;;;;;;19.97;16.87;;;;;;;;;;5098613;28;20512;-59
2021/05/11 16:46:40;;;;;;;21.17;17.07;;;;;;;;;;5097700;28;20233;-62
2021/05/11 16:49:06;;;;;;;22.77;18.17;;;;;;;;;;5095417;28;20212;-57
2021/05/11 16:51:33;;;;;;;21.23;17.47;;;;;;;;;;5092415;28;20195;-57
2021/05/11 16:53:59;;;;;;;19.37;16.27;;;;;;;;;;5092606;28;20228;-57
2021/05/11 16:56:26;;;;;;;19.10;15.63;;;;;;;;;;5092326;28;20214;-56
2021/05/11 16:58:52;;;;;;;21.97;17.07;;;;;;;;;;5092240;28;20211;-57
2021/05/11 17:01:19;;;;;;;23.70;18.60;;;;;;;;;;5091858;28;20234;-58
2021/05/11 17:03:46;;;;;;;23.70;19.43;;;;;;;;;;5092154;28;20245;-58
2021/05/11 17:06:13;;;;;;;27.43;20.70;;;;;;;;;;5091870;28;20216;-59
2021/05/11 17:08:39;;;;;;;25.23;20.60;;;;;;;;;;5091770;28;20552;-60
2021/05/11 17:11:06;;;;;;;28.50;20.43;;;;;;;;;;5092261;28;20651;-60
2021/05/11 17:13:38;;;;;;;28.30;20.37;;;;;;;;;;5091842;28;20677;-51
2021/05/11 17:16:05;;;;;;;27.20;21.73;;;;;;;;;;5090816;28;20634;-57
2021/05/11 17:18:31;;;;;;;26.50;20.57;;;;;;;;;;5090202;28;20738;-55
2021/05/11 17:20:59;;;;;;;29.77;22.00;;;;;;;;;;5091697;28;20235;-57
2021/05/11 17:23:25;;;;;;;32.53;22.70;;;;;;;;;;5091766;28;20239;-60
2021/05/11 17:25:52;;;;;;;34.00;24.40;;;;;;;;;;5092221;28;20280;-55
2021/05/11 17:28:19;;;;;;;34.23;24.13;;;;;;;;;;5091487;28;20289;-56
2021/05/11 17:30:47;;;;;;;34.33;24.27;;;;;;;;;;5091267;28;20200;-56
2021/05/11 17:33:13;;;;;;;32.00;23.17;;;;;;;;;;5091668;28;20254;-56
2021/05/11 17:35:40;;;;;;;32.83;23.27;;;;;;;;;;5090072;28;20206;-59
2021/05/11 17:38:08;;;;;;;33.90;22.80;;;;;;;;;;5090592;28;20264;-56
2021/05/11 17:40:34;;;;;;;32.83;23.63;;;;;;;;;;5090994;28;20335;-53
2021/05/11 17:43:02;;;;;;;32.10;23.53;;;;;;;;;;5090109;28;20231;-51
2021/05/11 17:45:29;;;;;;;39.67;24.80;;;;;;;;;;5092390;28;20210;-54
2021/05/11 17:47:58;;;;;;;38.67;25.00;;;;;;;;;;5091117;28;20293;-55